Time;durP1;ratioP1;P1;durP2;ratioP2;P2;SDS_P1;SDS_P2;PMS_P1;PMS_P2;Temp;Humidity;BMP_temperature;BMP_pressure;BME280_temperature;BME280_humidity;BME280_pressure;Samples;Min_cycle;Max_cycle;Signal;HPM_P1;HPM_P2
2024/03/16 00:01:35;;;;;;;1.60;0.80;;;23.50;65.70;;;;;;5059766;28;20459;-91
2024/03/16 00:04:01;;;;;;;1.70;0.80;;;23.50;65.70;;;;;;5059867;28;20939;-87
2024/03/16 00:06:29;;;;;;;1.70;0.90;;;23.50;65.80;;;;;;5060003;28;20798;-89
2024/03/16 00:08:56;;;;;;;1.60;0.90;;;23.40;65.60;;;;;;5066615;28;20424;-87
2024/03/16 00:11:27;;;;;;;2.47;0.80;;;23.50;65.70;;;;;;5083684;28;20420;-87
2024/03/16 00:13:54;;;;;;;2.23;0.90;;;23.50;65.70;;;;;;5084404;28;20428;-86
2024/03/16 00:16:21;;;;;;;1.47;0.80;;;23.50;65.70;;;;;;5059222;28;20500;-86
2024/03/16 00:18:48;;;;;;;2.57;1.00;;;23.50;65.70;;;;;;5059211;28;20502;-90
2024/03/16 00:21:15;;;;;;;1.70;1.13;;;23.60;65.90;;;;;;5060078;28;20965;-92
2024/03/16 00:23:43;;;;;;;2.40;1.27;;;23.50;65.70;;;;;;5058905;28;20479;-92
2024/03/16 00:26:11;;;;;;;1.80;0.90;;;23.50;65.70;;;;;;5059125;28;20436;-88
2024/03/16 00:28:38;;;;;;;2.03;1.00;;;23.50;65.70;;;;;;5058881;28;20882;-86
2024/03/16 00:31:05;;;;;;;1.40;0.70;;;23.50;65.70;;;;;;5058799;28;20432;-87
2024/03/16 00:33:32;;;;;;;1.90;0.90;;;23.60;65.80;;;;;;5058779;28;20436;-91
2024/03/16 00:35:58;;;;;;;1.50;0.80;;;23.40;65.50;;;;;;5059080;28;20443;-87
2024/03/16 00:38:26;;;;;;;2.30;1.00;;;23.40;65.50;;;;;;5058406;28;20484;-91
2024/03/16 00:40:53;;;;;;;2.27;1.10;;;23.40;65.40;;;;;;5058554;28;20440;-86
2024/03/16 00:43:20;;;;;;;1.70;0.90;;;23.50;65.60;;;;;;5058116;28;20445;-86
2024/03/16 00:45:47;;;;;;;1.90;1.00;;;23.50;65.60;;;;;;5058547;28;20490;-91
2024/03/16 00:48:14;;;;;;;1.90;0.80;;;23.40;65.40;;;;;;5058920;28;20956;-86
2024/03/16 00:50:41;;;;;;;1.50;0.80;;;23.40;65.40;;;;;;5058357;28;20433;-91
2024/03/16 00:53:09;;;;;;;1.40;0.70;;;23.40;65.40;;;;;;5058486;28;20472;-86
2024/03/16 00:55:37;;;;;;;1.60;0.80;;;23.40;65.40;;;;;;5058400;28;20478;-92
2024/03/16 00:58:04;;;;;;;1.50;0.80;;;23.40;65.40;;;;;;5058357;28;20496;-92
2024/03/16 01:00:31;;;;;;;1.50;0.80;;;23.40;65.40;;;;;;5058754;28;20436;-87
2024/03/16 01:02:59;;;;;;;1.60;0.80;;;23.50;65.50;;;;;;5058118;28;20441;-87
2024/03/16 01:05:27;;;;;;;3.00;1.10;;;23.40;65.40;;;;;;5058069;28;20942;-87
2024/03/16 01:07:54;;;;;;;1.40;0.70;;;23.40;65.30;;;;;;5058681;28;20494;-87
2024/03/16 01:10:21;;;;;;;1.63;0.70;;;23.40;65.30;;;;;;5057590;28;20456;-87
2024/03/16 01:12:48;;;;;;;1.80;0.80;;;23.40;65.40;;;;;;5057736;28;20927;-93
2024/03/16 01:15:16;;;;;;;1.50;0.90;;;23.40;65.40;;;;;;5058188;28;20472;-88
2024/03/16 01:17:43;;;;;;;1.70;0.90;;;23.40;65.30;;;;;;5058130;28;20432;-92
2024/03/16 01:20:10;;;;;;;1.97;0.70;;;23.40;65.30;;;;;;5057800;28;20437;-87
2024/03/16 01:22:38;;;;;;;1.50;0.70;;;23.40;65.30;;;;;;5057513;28;20445;-93
2024/03/16 01:25:05;;;;;;;1.33;0.60;;;23.40;65.30;;;;;;5057166;28;20497;-92
2024/03/16 01:27:33;;;;;;;1.50;0.80;;;23.40;65.30;;;;;;5055043;28;20455;-87
2024/03/16 01:30:00;;;;;;;1.90;0.90;;;23.30;65.10;;;;;;5056031;28;20464;-93
2024/03/16 01:32:28;;;;;;;1.50;0.90;;;23.40;65.20;;;;;;5056809;28;20979;-87
2024/03/16 01:34:54;;;;;;;2.20;0.90;;;23.40;65.20;;;;;;5057361;28;20445;-93
2024/03/16 01:37:21;;;;;;;1.70;0.80;;;23.30;66.00;;;;;;5057217;28;20440;-87
2024/03/16 01:39:49;;;;;;;1.50;0.80;;;23.40;65.20;;;;;;5073572;28;20571;-87
2024/03/16 01:42:16;;;;;;;1.40;0.70;;;23.30;65.20;;;;;;5056852;28;20437;-87
2024/03/16 01:44:51;;;;;;;1.47;0.77;;;23.30;65.20;;;;;;5057139;28;20443;-87
2024/03/16 01:47:18;;;;;;;2.23;1.27;;;23.40;65.30;;;;;;5057789;28;20443;-89
2024/03/16 01:49:45;;;;;;;1.40;0.70;;;23.40;65.20;;;;;;5056749;28;20539;-87
2024/03/16 01:52:13;;;;;;;1.40;0.70;;;23.30;65.10;;;;;;5057075;28;20432;-87
2024/03/16 01:54:39;;;;;;;1.50;0.80;;;23.30;65.50;;;;;;5073579;28;20433;-93
2024/03/16 01:57:06;;;;;;;2.10;0.93;;;23.30;65.10;;;;;;5056964;28;20453;-87
2024/03/16 01:59:33;;;;;;;1.43;0.80;;;23.30;65.10;;;;;;5056922;28;20490;-92
2024/03/16 02:02:02;;;;;;;1.50;0.80;;;23.30;65.10;;;;;;5056754;28;20448;-87
2024/03/16 02:04:29;;;;;;;1.70;0.87;;;23.30;65.10;;;;;;5057091;28;20854;-87
2024/03/16 02:06:56;;;;;;;1.50;0.80;;;23.40;65.30;;;;;;5056803;28;20439;-93
2024/03/16 02:09:23;;;;;;;1.70;0.80;;;23.30;65.10;;;;;;5056396;28;20447;-86
2024/03/16 02:11:50;;;;;;;2.03;0.80;;;23.30;65.10;;;;;;5056985;28;20943;-87
2024/03/16 02:14:17;;;;;;;1.50;0.70;;;23.30;65.10;;;;;;5056235;28;20447;-87
2024/03/16 02:16:44;;;;;;;1.73;0.80;;;23.30;65.90;;;;;;5056476;28;20428;-93
2024/03/16 02:19:11;;;;;;;1.50;0.93;;;23.30;65.10;;;;;;5056409;28;20519;-87
2024/03/16 02:21:38;;;;;;;1.50;0.80;;;23.30;65.10;;;;;;5056633;28;20792;-87
2024/03/16 02:24:05;;;;;;;1.90;0.73;;;23.30;65.10;;;;;;5057112;28;20435;-93
2024/03/16 02:26:32;;;;;;;4.90;0.87;;;23.30;65.10;;;;;;5056416;28;20935;-93
2024/03/16 02:29:02;;;;;;;1.70;0.70;;;23.30;65.10;;;;;;5056082;28;20463;-87
2024/03/16 02:31:29;;;;;;;1.60;1.00;;;23.30;65.10;;;;;;5056807;28;20436;-87
2024/03/16 02:33:58;;;;;;;1.67;1.10;;;23.30;65.10;;;;;;5056248;28;21019;-86
2024/03/16 02:36:25;;;;;;;1.73;0.80;;;23.30;65.10;;;;;;5056637;28;20440;-92
2024/03/16 02:38:52;;;;;;;1.80;1.00;;;23.30;65.10;;;;;;5056154;28;21084;-87
2024/03/16 02:41:19;;;;;;;1.63;0.87;;;23.30;65.10;;;;;;5056635;28;20439;-88
2024/03/16 02:43:46;;;;;;;1.50;0.73;;;23.30;65.10;;;;;;5056322;28;20436;-85
2024/03/16 02:46:12;;;;;;;1.90;0.87;;;23.30;65.10;;;;;;5056663;28;20440;-92
2024/03/16 02:48:39;;;;;;;1.97;0.90;;;23.20;65.00;;;;;;5056271;28;20436;-86
2024/03/16 02:51:07;;;;;;;3.80;0.83;;;23.30;65.10;;;;;;5056567;28;20443;-86
2024/03/16 02:53:34;;;;;;;1.40;0.70;;;23.20;65.00;;;;;;5056403;28;20527;-88
2024/03/16 02:56:00;;;;;;;1.50;0.90;;;23.30;65.10;;;;;;5056185;28;20432;-92
2024/03/16 02:58:27;;;;;;;1.70;0.90;;;23.30;65.00;;;;;;5056066;28;20484;-86
2024/03/16 03:00:54;;;;;;;4.03;1.07;;;23.20;65.00;;;;;;5057112;28;20444;-91
2024/03/16 03:03:21;;;;;;;2.00;0.90;;;23.30;65.10;;;;;;5060371;28;20441;-85
2024/03/16 03:05:49;;;;;;;1.93;0.90;;;23.20;64.90;;;;;;5060446;28;20791;-91
2024/03/16 03:08:16;;;;;;;1.70;0.80;;;23.20;64.90;;;;;;5060062;28;20527;-85
2024/03/16 03:10:43;;;;;;;1.80;0.83;;;23.20;64.90;;;;;;5060057;28;20773;-92
2024/03/16 03:13:10;;;;;;;1.53;0.80;;;23.30;65.00;;;;;;5060372;28;20439;-86
2024/03/16 03:15:37;;;;;;;1.43;0.73;;;23.20;64.90;;;;;;5059722;28;20464;-91
2024/03/16 03:18:05;;;;;;;1.50;0.90;;;23.20;64.90;;;;;;5060157;28;20429;-86
2024/03/16 03:20:32;;;;;;;2.10;0.80;;;23.20;64.90;;;;;;5059778;28;20552;-85
2024/03/16 03:22:59;;;;;;;1.40;0.80;;;23.20;64.90;;;;;;5060080;28;20438;-86
2024/03/16 03:25:27;;;;;;;1.50;0.80;;;23.20;64.90;;;;;;5076335;28;20795;-86
2024/03/16 03:27:54;;;;;;;1.97;0.80;;;23.30;65.00;;;;;;5061452;28;20456;-86
2024/03/16 03:30:20;;;;;;;1.63;0.80;;;23.20;64.90;;;;;;5069551;28;20417;-86
2024/03/16 03:32:47;;;;;;;1.50;0.70;;;23.20;65.70;;;;;;5083958;28;20429;-86
2024/03/16 03:35:14;;;;;;;1.60;0.90;;;23.20;64.90;;;;;;5081619;28;20447;-85
2024/03/16 03:37:41;;;;;;;1.60;0.80;;;23.20;64.90;;;;;;5081439;28;20443;-84
2024/03/16 03:40:09;;;;;;;1.60;0.90;;;23.20;64.90;;;;;;5100419;28;20467;-87
2024/03/16 03:42:39;;;;;;;1.47;0.80;;;23.20;64.90;;;;;;5084524;28;20418;-93
2024/03/16 03:45:24;;;;;;;1.80;0.80;;;23.20;64.90;;;;;;5066561;28;20512;-86
2024/03/16 03:48:00;;;;;;;1.50;0.80;;;23.20;64.90;;;;;;5069358;28;20813;-92
2024/03/16 03:50:28;;;;;;;3.10;1.07;;;23.20;65.00;;;;;;5080404;28;20785;-86
2024/03/16 03:52:58;;;;;;;1.60;0.83;;;23.20;64.90;;;;;;5063985;28;20510;-87
2024/03/16 03:55:26;;;;;;;2.10;0.87;;;23.20;64.90;;;;;;5078120;28;20435;-86
2024/03/16 03:57:53;;;;;;;1.40;0.70;;;23.20;64.90;;;;;;5079246;28;20462;-93
2024/03/16 04:00:19;;;;;;;1.50;0.80;;;23.20;64.90;;;;;;5078790;28;20479;-86
2024/03/16 04:02:46;;;;;;;1.73;0.90;;;23.10;64.80;;;;;;5079720;28;20950;-86
2024/03/16 04:05:13;;;;;;;3.00;0.80;;;23.10;64.90;;;;;;5079090;28;20442;-87
2024/03/16 04:07:41;;;;;;;1.80;0.90;;;23.20;64.90;;;;;;5078955;28;20439;-87
2024/03/16 04:10:08;;;;;;;1.97;0.93;;;23.20;64.90;;;;;;5078691;28;20512;-87
2024/03/16 04:12:35;;;;;;;1.93;0.80;;;23.10;64.90;;;;;;5078334;28;20445;-87
2024/03/16 04:15:03;;;;;;;1.77;0.87;;;23.20;65.00;;;;;;5078690;28;20469;-86
2024/03/16 04:17:30;;;;;;;1.70;0.80;;;23.10;64.80;;;;;;5078835;28;20812;-86
2024/03/16 04:19:57;;;;;;;1.70;0.80;;;23.20;65.80;;;;;;5078586;28;20493;-87
2024/03/16 04:22:24;;;;;;;1.80;0.90;;;23.10;64.80;;;;;;5079258;28;20427;-86
2024/03/16 04:24:51;;;;;;;1.50;0.80;;;23.10;64.80;;;;;;5078690;28;20451;-86
2024/03/16 04:27:18;;;;;;;1.60;0.80;;;23.10;64.80;;;;;;5078726;28;20435;-86
2024/03/16 04:29:45;;;;;;;1.90;0.90;;;23.10;64.80;;;;;;5080226;28;20459;-86
2024/03/16 04:32:12;;;;;;;1.73;1.07;;;23.10;64.80;;;;;;5078789;28;20786;-86
2024/03/16 04:34:39;;;;;;;1.50;0.90;;;23.10;64.90;;;;;;5078757;28;20437;-86
2024/03/16 04:37:06;;;;;;;1.50;0.80;;;23.10;64.80;;;;;;5078296;28;20534;-92
2024/03/16 04:39:33;;;;;;;1.70;0.80;;;23.10;64.90;;;;;;5078011;28;20486;-86
2024/03/16 04:42:00;;;;;;;1.50;0.80;;;23.20;64.90;;;;;;5078292;28;20435;-86
2024/03/16 04:44:26;;;;;;;3.00;0.90;;;23.10;64.80;;;;;;5078009;28;20810;-87
2024/03/16 04:46:54;;;;;;;1.67;0.87;;;23.10;64.80;;;;;;5078037;28;20454;-86
2024/03/16 04:49:21;;;;;;;1.70;0.90;;;23.10;64.80;;;;;;5078196;28;20862;-87
2024/03/16 04:51:48;;;;;;;1.60;0.80;;;23.10;64.80;;;;;;5077788;28;20432;-87
2024/03/16 04:54:15;;;;;;;1.50;0.80;;;23.10;64.90;;;;;;5077689;28;20957;-87
2024/03/16 04:56:42;;;;;;;1.57;0.77;;;23.10;64.90;;;;;;5077809;28;20427;-87
2024/03/16 04:59:10;;;;;;;1.43;0.77;;;23.10;64.80;;;;;;5077607;28;20488;-86
2024/03/16 05:01:37;;;;;;;1.50;0.80;;;23.10;64.80;;;;;;5077679;28;20445;-86
2024/03/16 05:04:04;;;;;;;1.73;0.90;;;23.10;64.80;;;;;;5077622;28;20904;-87
2024/03/16 05:06:32;;;;;;;1.70;0.90;;;23.10;64.90;;;;;;5077360;28;20444;-86
2024/03/16 05:09:02;;;;;;;1.50;0.90;;;23.10;65.70;;;;;;5077763;28;20444;-86
2024/03/16 05:11:29;;;;;;;1.60;0.70;;;23.10;64.90;;;;;;5078192;28;20835;-87
2024/03/16 05:13:57;;;;;;;1.60;0.83;;;23.10;64.90;;;;;;5077443;28;20463;-87
2024/03/16 05:16:24;;;;;;;1.90;1.00;;;23.10;64.90;;;;;;5041406;28;20502;-85
2024/03/16 05:18:51;;;;;;;1.60;0.83;;;23.10;64.90;;;;;;5040618;28;20530;-86
2024/03/16 05:21:19;;;;;;;2.00;0.80;;;23.10;64.80;;;;;;5040860;28;20466;-86
2024/03/16 05:23:46;;;;;;;1.40;0.80;;;23.10;64.90;;;;;;5039888;28;20447;-87
2024/03/16 05:26:13;;;;;;;1.87;0.90;;;23.10;64.90;;;;;;5040754;28;20923;-87
2024/03/16 05:28:40;;;;;;;1.40;0.80;;;23.10;64.90;;;;;;5040306;28;20456;-87
2024/03/16 05:31:07;;;;;;;1.60;0.90;;;23.10;64.90;;;;;;5040590;28;20432;-87
2024/03/16 05:33:34;;;;;;;1.40;0.80;;;23.10;64.90;;;;;;5040733;28;20955;-86
2024/03/16 05:36:02;;;;;;;3.60;1.00;;;23.10;64.90;;;;;;5040334;28;20436;-86
2024/03/16 05:38:29;;;;;;;1.67;1.00;;;23.10;64.90;;;;;;5040395;28;20474;-85
2024/03/16 05:40:56;;;;;;;1.80;1.00;;;23.00;64.70;;;;;;5037718;28;20484;-86
2024/03/16 05:43:23;;;;;;;1.70;0.90;;;23.10;64.90;;;;;;5053974;28;20429;-86
2024/03/16 05:45:51;;;;;;;1.60;0.90;;;23.10;64.90;;;;;;5037583;28;20800;-87
2024/03/16 05:48:18;;;;;;;1.50;0.80;;;23.10;64.90;;;;;;5037153;28;20434;-86
2024/03/16 05:50:45;;;;;;;1.70;0.87;;;23.00;64.70;;;;;;5037075;28;20472;-86
2024/03/16 05:53:12;;;;;;;1.97;1.00;;;23.00;64.70;;;;;;5037207;28;20436;-86
2024/03/16 05:55:39;;;;;;;1.47;0.87;;;23.10;64.90;;;;;;5036838;28;20476;-87
2024/03/16 05:58:06;;;;;;;2.27;1.00;;;23.00;64.70;;;;;;5036613;28;20465;-86
2024/03/16 06:00:37;;;;;;;1.50;0.80;;;23.00;64.80;;;;;;5036673;28;20495;-87
2024/03/16 06:03:04;;;;;;;3.00;1.40;;;23.00;64.70;;;;;;5037245;28;20429;-87
2024/03/16 06:05:35;;;;;;;1.70;1.10;;;23.00;64.80;;;;;;5036455;28;20434;-87
2024/03/16 06:08:02;;;;;;;1.60;0.83;;;23.00;64.70;;;;;;5037091;28;20780;-86
2024/03/16 06:10:29;;;;;;;1.50;0.80;;;23.00;64.70;;;;;;5036502;28;20448;-86
2024/03/16 06:12:56;;;;;;;1.50;0.80;;;23.10;64.90;;;;;;5036591;28;20955;-87
2024/03/16 06:15:23;;;;;;;1.60;0.83;;;23.00;64.80;;;;;;5048094;28;20463;-86
2024/03/16 06:17:50;;;;;;;1.80;0.90;;;23.00;64.80;;;;;;5056605;28;20463;-86
2024/03/16 06:20:17;;;;;;;1.60;1.07;;;23.00;64.80;;;;;;5056913;28;20905;-87
2024/03/16 06:22:45;;;;;;;1.60;0.90;;;23.00;64.80;;;;;;5056525;28;20444;-87
2024/03/16 06:25:12;;;;;;;1.50;0.83;;;23.00;64.90;;;;;;5056954;28;20458;-92
2024/03/16 06:27:43;;;;;;;1.73;0.90;;;23.00;64.90;;;;;;5056170;28;20467;-87
2024/03/16 06:30:12;;;;;;;1.60;0.90;;;23.00;64.90;;;;;;5057517;28;20437;-87
2024/03/16 06:32:44;;;;;;;1.80;0.90;;;23.00;64.80;;;;;;5057279;28;20441;-86
2024/03/16 06:35:11;;;;;;;1.50;0.80;;;23.00;64.80;;;;;;5057656;28;20440;-87
2024/03/16 06:37:38;;;;;;;1.40;0.80;;;23.00;64.70;;;;;;5073275;28;20523;-86
2024/03/16 06:40:06;;;;;;;1.43;0.87;;;23.00;64.80;;;;;;5074255;28;20484;-87
2024/03/16 06:42:32;;;;;;;1.50;0.77;;;23.00;64.80;;;;;;5073963;28;20779;-92
2024/03/16 06:44:59;;;;;;;2.00;1.00;;;23.10;64.90;;;;;;5073467;28;20432;-86
2024/03/16 06:47:27;;;;;;;1.60;0.80;;;23.10;64.90;;;;;;5075274;28;20479;-91
2024/03/16 06:49:54;;;;;;;1.60;0.90;;;23.10;65.00;;;;;;5080502;28;20416;-86
2024/03/16 06:52:24;;;;;;;1.70;0.97;;;23.00;64.80;;;;;;5097178;28;20483;-87
2024/03/16 06:54:52;;;;;;;1.70;0.90;;;23.10;64.90;;;;;;5096406;28;20433;-85
2024/03/16 07:00:08;;;;;;;1.60;0.87;;;23.00;64.80;;;;;;5073841;28;20528;-86
2024/03/16 07:02:35;;;;;;;1.60;0.80;;;23.00;64.80;;;;;;5078791;28;20436;-86
2024/03/16 07:05:02;;;;;;;2.07;1.00;;;23.00;64.80;;;;;;5075172;28;20483;-86
2024/03/16 07:07:30;;;;;;;1.40;0.80;;;23.00;64.80;;;;;;5075129;28;20768;-87
2024/03/16 07:09:57;;;;;;;2.53;0.80;;;23.00;64.70;;;;;;5073266;28;20827;-85
2024/03/16 07:12:24;;;;;;;1.60;0.93;;;23.00;64.70;;;;;;5072729;28;20433;-84
2024/03/16 07:14:51;;;;;;;1.70;1.00;;;23.00;64.80;;;;;;5075698;28;20476;-85
2024/03/16 07:17:20;;;;;;;1.47;0.83;;;23.00;64.70;;;;;;5077395;28;20440;-85
2024/03/16 07:19:47;;;;;;;1.50;0.90;;;23.10;64.90;;;;;;5073398;28;20487;-89
2024/03/16 07:22:15;;;;;;;2.00;0.90;;;23.00;64.80;;;;;;5073268;28;20436;-89
2024/03/16 07:24:43;;;;;;;1.50;0.77;;;23.00;64.80;;;;;;5073443;28;20472;-86
2024/03/16 07:27:09;;;;;;;1.97;0.90;;;23.00;64.70;;;;;;5074430;28;20440;-85
2024/03/16 07:29:36;;;;;;;1.50;0.90;;;23.00;64.80;;;;;;5073487;28;20935;-86
2024/03/16 07:32:04;;;;;;;1.50;0.80;;;23.00;64.70;;;;;;5072827;28;20432;-86
2024/03/16 07:34:32;;;;;;;1.93;0.97;;;23.00;64.80;;;;;;5073576;28;20544;-85
2024/03/16 07:36:59;;;;;;;1.40;0.80;;;23.00;64.70;;;;;;5072940;28;20447;-86
2024/03/16 07:39:26;;;;;;;1.67;0.73;;;23.00;64.70;;;;;;5073483;28;20951;-87
2024/03/16 07:41:52;;;;;;;1.60;0.90;;;23.00;64.70;;;;;;5073051;28;20488;-86
2024/03/16 07:44:19;;;;;;;1.40;0.80;;;23.00;64.70;;;;;;5072788;28;20443;-90
2024/03/16 07:46:48;;;;;;;1.50;0.80;;;23.10;64.90;;;;;;5073645;28;20440;-86
2024/03/16 07:49:15;;;;;;;1.60;1.10;;;23.00;64.70;;;;;;5076525;28;20444;-87
2024/03/16 07:51:43;;;;;;;1.30;0.60;;;23.00;64.70;;;;;;5076335;28;20436;-87
2024/03/16 07:54:12;;;;;;;1.60;0.80;;;23.00;64.70;;;;;;5075820;28;21013;-86
2024/03/16 07:56:39;;;;;;;1.67;0.93;;;23.00;64.70;;;;;;5077826;28;20782;-87
2024/03/16 07:59:05;;;;;;;1.43;0.80;;;23.00;64.80;;;;;;5089385;28;20464;-86
2024/03/16 08:01:32;;;;;;;1.87;0.90;;;23.00;64.40;;;;;;5078419;28;20483;-87
2024/03/16 08:04:00;;;;;;;1.70;0.83;;;23.00;64.70;;;;;;5078685;28;20440;-87
2024/03/16 08:06:27;;;;;;;2.90;0.90;;;23.00;64.80;;;;;;5077150;28;20443;-84
2024/03/16 08:08:54;;;;;;;2.90;1.00;;;22.90;64.60;;;;;;5080058;28;20443;-87
2024/03/16 08:11:21;;;;;;;2.63;0.83;;;23.00;61.90;;;;;;5083470;28;20439;-86
2024/03/16 08:13:48;;;;;;;1.60;0.80;;;23.00;63.00;;;;;;5080110;28;20436;-86
2024/03/16 08:16:15;;;;;;;1.87;1.00;;;23.00;63.70;;;;;;5080419;28;20468;-92
2024/03/16 08:18:42;;;;;;;6.60;0.90;;;23.00;64.40;;;;;;5079186;28;20930;-93
2024/03/16 08:21:09;;;;;;;2.10;0.87;;;23.00;64.50;;;;;;5079540;28;20494;-86
2024/03/16 08:23:36;;;;;;;4.50;1.17;;;23.00;64.50;;;;;;5078513;28;20797;-87
2024/03/16 08:26:05;;;;;;;1.60;0.70;;;23.00;64.70;;;;;;5078610;28;20535;-87
2024/03/16 08:28:32;;;;;;;2.73;0.90;;;23.00;65.60;;;;;;5077428;28;20463;-87
2024/03/16 08:31:00;;;;;;;2.90;0.90;;;23.00;64.70;;;;;;5078070;28;20438;-88
2024/03/16 08:33:27;;;;;;;2.30;0.90;;;23.00;64.70;;;;;;5078387;28;20470;-88
2024/03/16 08:35:54;;;;;;;1.60;0.70;;;23.00;64.70;;;;;;5077700;28;20435;-93
2024/03/16 08:38:21;;;;;;;4.37;0.80;;;23.00;64.80;;;;;;5077945;28;20432;-92
2024/03/16 08:40:48;;;;;;;3.30;1.00;;;23.00;65.00;;;;;;5078078;28;20479;-87
2024/03/16 08:43:15;;;;;;;3.00;0.90;;;23.00;65.10;;;;;;5074779;28;20937;-83
2024/03/16 08:45:42;;;;;;;2.47;1.10;;;23.00;65.20;;;;;;5077700;28;20444;-87
2024/03/16 08:48:13;;;;;;;4.47;1.30;;;23.00;65.10;;;;;;5063523;28;20429;-94
2024/03/16 08:50:40;;;;;;;3.00;0.87;;;23.00;65.10;;;;;;5059066;28;20449;-86
2024/03/16 08:55:48;;;;;;;2.13;0.70;;;23.00;65.20;;;;;;4856141;26;21052;-87
2024/03/16 08:58:16;;;;;;;1.93;0.93;;;23.00;65.20;;;;;;5077377;28;20467;-87
2024/03/16 09:14:28;;;;;;;5.30;0.80;;;22.90;65.10;;;;;;4993204;28;20939;-85
2024/03/16 09:16:54;;;;;;;3.00;1.13;;;22.90;64.80;;;;;;5051808;28;20444;-85
2024/03/16 09:19:21;;;;;;;2.73;1.10;;;22.90;64.50;;;;;;5058579;28;20432;-87
2024/03/16 09:21:49;;;;;;;3.27;0.90;;;23.00;64.40;;;;;;5060667;28;20486;-85
2024/03/16 09:24:16;;;;;;;2.57;1.37;;;23.00;64.20;;;;;;5060993;28;20444;-86
2024/03/16 09:26:42;;;;;;;2.93;0.80;;;23.10;62.40;;;;;;5060545;28;20954;-85
2024/03/16 09:29:10;;;;;;;4.30;1.27;;;23.00;62.60;;;;;;5060578;28;20815;-87
2024/03/16 09:31:37;;;;;;;4.33;1.30;;;23.00;63.60;;;;;;5062196;28;20440;-86
2024/03/16 09:34:04;;;;;;;8.40;1.23;;;23.00;64.30;;;;;;5060784;28;20431;-86
2024/03/16 09:36:31;;;;;;;6.70;1.30;;;23.00;64.10;;;;;;5061211;28;20483;-86
2024/03/16 09:38:58;;;;;;;4.47;1.03;;;23.00;64.20;;;;;;5060349;28;20534;-87
2024/03/16 09:41:25;;;;;;;2.00;0.87;;;23.00;64.30;;;;;;5060525;28;20515;-87
2024/03/16 09:43:53;;;;;;;4.23;0.93;;;23.00;64.30;;;;;;5061444;28;20446;-91
2024/03/16 09:46:21;;;;;;;2.37;0.90;;;23.00;64.30;;;;;;5061896;28;20462;-85
2024/03/16 09:48:49;;;;;;;1.93;0.83;;;23.00;64.30;;;;;;5061287;28;20444;-86
2024/03/16 09:51:16;;;;;;;1.80;0.87;;;23.00;64.30;;;;;;5061376;28;20450;-87
2024/03/16 09:53:43;;;;;;;6.30;1.30;;;23.00;64.40;;;;;;5060621;28;20511;-88
2024/03/16 09:56:11;;;;;;;7.90;1.30;;;23.00;62.30;;;;;;5061183;28;20424;-87
2024/03/16 09:58:38;;;;;;;2.37;1.10;;;23.00;61.90;;;;;;5061179;28;20474;-87
2024/03/16 10:01:05;;;;;;;3.20;1.10;;;22.90;63.10;;;;;;5060170;28;20518;-87
2024/03/16 10:03:32;;;;;;;6.73;1.07;;;22.90;63.90;;;;;;5061248;28;20462;-87
2024/03/16 10:06:00;;;;;;;9.43;1.23;;;23.00;63.90;;;;;;5060544;28;20488;-87
2024/03/16 10:08:27;;;;;;;2.10;1.10;;;23.00;63.90;;;;;;5061168;28;20431;-87
2024/03/16 10:11:09;;;;;;;4.90;1.10;;;23.00;63.10;;;;;;5060656;28;20523;-88
2024/03/16 10:13:37;;;;;;;3.30;1.30;;;22.90;63.80;;;;;;5066741;28;20435;-88
2024/03/16 10:16:04;;;;;;;1.90;1.00;;;23.00;64.00;;;;;;5075416;28;20503;-87
2024/03/16 10:18:31;;;;;;;8.77;1.20;;;23.00;64.00;;;;;;5092172;28;20443;-88
2024/03/16 10:20:58;;;;;;;2.73;1.10;;;23.00;64.10;;;;;;5066181;28;20473;-90
2024/03/16 10:23:26;;;;;;;5.90;1.20;;;23.00;63.50;;;;;;5061558;28;20431;-84
2024/03/16 10:25:56;;;;;;;8.13;1.70;;;23.00;63.40;;;;;;5058426;28;20879;-86
2024/03/16 10:28:22;;;;;;;9.53;1.10;;;23.00;62.60;;;;;;5059726;28;20526;-84
2024/03/16 10:30:49;;;;;;;7.43;1.47;;;23.00;62.40;;;;;;5059321;28;20440;-85
2024/03/16 10:33:18;;;;;;;5.10;1.30;;;23.00;62.10;;;;;;5059548;28;20937;-87
2024/03/16 10:35:45;;;;;;;4.83;1.20;;;23.00;62.80;;;;;;5059876;28;20436;-85
2024/03/16 10:38:12;;;;;;;2.50;1.07;;;23.10;63.00;;;;;;5059434;28;20439;-84
2024/03/16 10:40:39;;;;;;;6.53;1.40;;;23.00;63.20;;;;;;5059044;28;20432;-87
2024/03/16 10:43:08;;;;;;;5.77;1.00;;;23.00;63.20;;;;;;5059925;28;20435;-85
2024/03/16 10:45:35;;;;;;;3.37;0.90;;;23.10;63.30;;;;;;5059913;28;20431;-88
2024/03/16 10:48:02;;;;;;;2.67;1.00;;;23.10;63.60;;;;;;5059695;28;20459;-86
2024/03/16 10:50:30;;;;;;;6.50;1.40;;;23.10;63.40;;;;;;5059292;28;20432;-89
2024/03/16 10:52:57;;;;;;;10.67;1.10;;;23.10;63.10;;;;;;5060547;28;20447;-91
2024/03/16 10:55:24;;;;;;;12.33;1.20;;;23.00;58.90;;;;;;5059542;28;20471;-88
2024/03/16 10:57:51;;;;;;;3.13;1.30;;;23.00;59.70;;;;;;5059206;28;20964;-85
2024/03/16 11:00:34;;;;;;;7.60;1.40;;;23.00;61.60;;;;;;5059853;28;20930;-93
2024/03/16 11:03:01;;;;;;;2.90;0.80;;;22.90;55.80;;;;;;5061983;28;20805;-84
2024/03/16 11:05:35;;;;;;;6.30;1.47;;;22.80;55.20;;;;;;5059111;28;20431;-87
2024/03/16 11:08:11;;;;;;;7.57;1.33;;;22.70;55.80;;;;;;5059595;28;20435;-93
2024/03/16 11:10:39;;;;;;;2.37;1.07;;;22.70;57.80;;;;;;5061886;28;20439;-93
2024/03/16 11:13:15;;;;;;;5.53;1.00;;;22.80;59.00;;;;;;5059867;28;20482;-88
2024/03/16 11:15:42;;;;;;;9.93;1.33;;;22.80;59.90;;;;;;5059092;28;20475;-92
2024/03/16 11:18:52;;;;;;;4.27;1.43;;;22.80;59.90;;;;;;5059106;28;20439;-86
2024/03/16 11:21:20;;;;;;;3.03;1.20;;;22.80;59.80;;;;;;5093716;28;20494;-86
2024/03/16 11:23:48;;;;;;;2.40;1.10;;;22.80;59.90;;;;;;5062983;28;20849;-88
2024/03/16 11:26:31;;;;;;;2.43;0.90;;;23.00;59.90;;;;;;5063407;28;20439;-88
2024/03/16 11:29:05;;;;;;;3.80;1.60;;;22.90;60.10;;;;;;5079307;28;20455;-86
2024/03/16 11:31:36;;;;;;;8.47;1.20;;;22.90;59.90;;;;;;5079300;28;20431;-85
2024/03/16 11:34:09;;;;;;;6.53;1.20;;;22.90;60.20;;;;;;5064148;28;20447;-86
2024/03/16 11:36:37;;;;;;;3.20;1.20;;;22.90;60.50;;;;;;5063524;28;20487;-89
2024/03/16 11:39:11;;;;;;;5.13;1.40;;;22.90;61.00;;;;;;5063332;28;20464;-92
2024/03/16 11:41:44;;;;;;;2.80;1.00;;;22.90;62.40;;;;;;5064643;28;20977;-83
2024/03/16 11:44:12;;;;;;;12.83;1.10;;;23.00;62.20;;;;;;5063173;28;20440;-86
2024/03/16 11:46:39;;;;;;;3.23;1.10;;;23.10;61.80;;;;;;5063782;28;20839;-93
2024/03/16 11:49:09;;;;;;;5.17;1.40;;;22.90;61.90;;;;;;5063175;28;20436;-89
2024/03/16 11:51:36;;;;;;;5.73;1.07;;;23.00;62.40;;;;;;5064652;28;20443;-91
2024/03/16 17:42:00;;;;;;;1.50;0.80;;;23.00;63.00;;;;;;5170496;27;20472;-93
2024/03/16 17:44:26;;;;;;;2.13;1.27;;;22.90;63.00;;;;;;5153285;27;20435;-93
2024/03/16 17:46:53;;;;;;;1.90;0.90;;;22.90;62.90;;;;;;5153250;27;20479;-92
2024/03/16 17:49:19;;;;;;;2.37;1.50;;;22.90;62.80;;;;;;5152671;27;20539;-91
2024/03/16 17:51:47;;;;;;;3.60;1.00;;;23.00;62.90;;;;;;5153944;27;20445;-91
2024/03/16 17:54:15;;;;;;;2.63;1.00;;;23.00;62.80;;;;;;5153331;27;20524;-87
2024/03/16 17:56:42;;;;;;;2.43;1.00;;;23.10;62.90;;;;;;5152991;27;20433;-94
2024/03/16 17:59:08;;;;;;;2.47;0.90;;;23.10;62.90;;;;;;5135716;27;20429;-94
2024/03/16 18:01:34;;;;;;;3.20;1.30;;;23.00;62.80;;;;;;5136549;27;20507;-92
2024/03/16 18:04:01;;;;;;;1.70;0.80;;;23.00;62.70;;;;;;5136044;27;20436;-93
2024/03/16 18:06:28;;;;;;;2.20;1.00;;;23.00;62.70;;;;;;5136772;27;20521;-92
2024/03/16 18:08:53;;;;;;;1.70;0.90;;;23.00;62.70;;;;;;5135870;27;20437;-92
2024/03/16 18:11:20;;;;;;;4.07;1.77;;;23.00;62.60;;;;;;5137198;27;20468;-93
2024/03/16 18:13:46;;;;;;;1.80;0.90;;;23.00;62.60;;;;;;5137615;27;20437;-93
2024/03/16 18:16:15;;;;;;;1.80;0.90;;;23.00;62.60;;;;;;5135591;27;20444;-92
2024/03/16 18:18:41;;;;;;;2.10;1.00;;;23.10;63.60;;;;;;5137674;27;20436;-93
2024/03/16 18:21:08;;;;;;;2.47;1.10;;;23.00;62.60;;;;;;5135753;27;20516;-91
2024/03/16 18:23:36;;;;;;;1.63;1.07;;;23.00;62.60;;;;;;5136863;27;20429;-92
2024/03/16 18:26:03;;;;;;;1.70;0.90;;;23.00;62.50;;;;;;5153617;27;20501;-87
2024/03/16 18:28:30;;;;;;;3.83;1.40;;;23.00;62.60;;;;;;5153154;27;20468;-93
2024/03/16 18:30:56;;;;;;;2.50;1.00;;;23.00;62.50;;;;;;5153398;27;20440;-93
2024/03/16 18:33:23;;;;;;;1.80;1.00;;;23.00;62.50;;;;;;5153583;27;20792;-92
2024/03/16 18:35:50;;;;;;;2.30;1.00;;;23.00;62.50;;;;;;5155166;27;20192;-93
2024/03/16 18:38:16;;;;;;;2.13;1.30;;;23.00;62.50;;;;;;5153906;27;20464;-93
2024/03/16 18:40:44;;;;;;;2.00;1.00;;;23.00;62.40;;;;;;5152818;27;20484;-86
2024/03/16 18:43:17;;;;;;;2.50;1.23;;;23.00;62.50;;;;;;5153286;27;20433;-93
2024/03/16 18:45:42;;;;;;;2.20;1.13;;;23.00;62.40;;;;;;5153371;27;20437;-93
2024/03/16 18:48:09;;;;;;;1.80;1.10;;;23.00;62.40;;;;;;5153262;27;20459;-93
2024/03/16 18:50:37;;;;;;;1.70;1.00;;;23.00;62.50;;;;;;5153673;27;20638;-93
2024/03/16 18:53:05;;;;;;;2.80;1.20;;;23.00;62.40;;;;;;5140208;27;20440;-87
2024/03/16 18:55:31;;;;;;;2.07;1.20;;;23.00;62.40;;;;;;5139076;27;20438;-92